KBUR/BUR METAR and TAF weather

Enter ICAO airport designator
Station Type Date Time Source
KBUR METAR 2022/06/29 00:53 UTC NOAA

KBUR 290053Z 17008KT 10SM CLR 34/08 A2994 RMK AO2 SLP122 T03390083


Station Type Date Time Source
KBUR Decoded METAR 2022/06/29 00:53 UTC NOAA

BURBANK-GLENDALE-PASADENA, CA, United States (KBUR) 34-12N 118-22W 217M
Jun 28, 2022 - 08:53 PM EDT / 2022.06.29 0053 UTC
Wind: from the S (170 degrees) at 9 MPH (8 KT):0
Visibility: 10 mile(s):0
Sky conditions: clear
Temperature: 93.0 F (33.9 C)
Dew Point: 46.9 F (8.3 C)
Relative Humidity: 20%
Pressure (altimeter): 29.94 in. Hg (1013 hPa)
ob: KBUR 290053Z 17008KT 10SM CLR 34/08 A2994 RMK AO2 SLP122 T03390083
cycle: 1

Station Type Date Time Source
KBUR TAF 2022/06/28 18:22 UTC NOAA

TAF KBUR 281720Z 2818/2918 18003KT P6SM SKC
FM282000 18010KT P6SM SKC
FM290300 11006KT P6SM SKC
FM291000 VRB03KT P6SM SKC

Example: see airport list